Time;durP1;ratioP1;P1;durP2;ratioP2;P2;SDS_P1;SDS_P2;PMS_P1;PMS_P2;Temp;Humidity;BMP_temperature;BMP_pressure;BME280_temperature;BME280_humidity;BME280_pressure;Samples;Min_cycle;Max_cycle;Signal;HPM_P1;HPM_P2
2023/08/16 00:01:23;;;;;;;4.27;3.47;;;19.10;99.90;;;;;;5075592;28;20442;-73
2023/08/16 00:04:08;;;;;;;8.97;3.03;;;19.10;99.90;;;;;;5079092;28;20448;-73
2023/08/16 00:06:55;;;;;;;4.73;3.10;;;19.20;99.90;;;;;;5074754;28;20468;-73
2023/08/16 00:09:41;;;;;;;5.73;3.47;;;19.20;99.90;;;;;;5080451;28;20456;-73
2023/08/16 00:12:26;;;;;;;4.80;2.50;;;19.40;99.90;;;;;;5081441;28;20414;-73
2023/08/16 00:15:12;;;;;;;4.73;3.50;;;19.50;99.90;;;;;;5083844;28;20502;-73
2023/08/16 00:17:57;;;;;;;3.93;2.93;;;19.50;99.90;;;;;;5083467;28;21151;-73
2023/08/16 00:20:43;;;;;;;3.57;2.87;;;19.50;99.90;;;;;;5072840;28;20468;-73
2023/08/16 00:23:30;;;;;;;6.80;3.50;;;19.50;99.90;;;;;;5072862;28;20457;-72
2023/08/16 00:26:15;;;;;;;4.83;3.23;;;19.30;99.90;;;;;;5081169;28;20454;-73
2023/08/16 00:29:00;;;;;;;5.50;3.43;;;19.40;99.90;;;;;;5086688;28;20917;-73
2023/08/16 00:31:46;;;;;;;6.27;3.70;;;19.40;99.90;;;;;;5088335;28;20510;-73
2023/08/16 00:34:31;;;;;;;6.57;2.90;;;19.40;99.90;;;;;;5086253;28;20969;-73
2023/08/16 00:37:17;;;;;;;7.13;3.30;;;19.30;99.90;;;;;;5081795;28;20956;-72
2023/08/16 00:40:05;;;;;;;5.13;3.53;;;19.20;99.90;;;;;;5080854;28;20423;-73
2023/08/16 00:42:51;;;;;;;4.37;3.20;;;19.10;99.90;;;;;;5084288;28;20423;-73
2023/08/16 00:45:37;;;;;;;4.67;3.90;;;19.10;99.90;;;;;;5087925;28;20452;-74
2023/08/16 00:48:22;;;;;;;5.50;3.20;;;19.10;99.90;;;;;;5076785;28;20452;-73
2023/08/16 00:51:09;;;;;;;5.20;3.30;;;19.20;99.90;;;;;;5084099;28;20495;-72
2023/08/16 00:53:55;;;;;;;12.53;4.03;;;19.20;99.90;;;;;;5084312;28;20440;-74
2023/08/16 00:56:42;;;;;;;3.47;3.00;;;19.30;99.90;;;;;;5085258;28;20487;-74
2023/08/16 00:59:28;;;;;;;12.77;3.63;;;19.30;99.90;;;;;;5079875;28;20437;-74
2023/08/16 01:02:14;;;;;;;8.10;3.07;;;19.30;99.90;;;;;;5084939;28;20534;-74
2023/08/16 01:05:00;;;;;;;5.07;3.40;;;19.40;99.90;;;;;;5086959;28;20435;-74
2023/08/16 01:07:46;;;;;;;4.90;3.20;;;19.30;99.90;;;;;;5087185;28;20494;-74
2023/08/16 01:10:39;;;;;;;5.50;3.10;;;19.30;99.90;;;;;;5076860;28;20512;-73
2023/08/16 01:13:29;;;;;;;6.10;3.20;;;19.20;99.90;;;;;;5079699;28;20451;-72
2023/08/16 01:16:16;;;;;;;4.70;3.00;;;19.20;99.90;;;;;;5082975;28;20925;-73
2023/08/16 01:19:03;;;;;;;5.77;3.00;;;19.20;99.90;;;;;;5079261;28;21112;-73
2023/08/16 01:22:03;;;;;;;4.87;3.87;;;19.00;99.90;;;;;;5087446;28;20421;-73
2023/08/16 01:25:05;;;;;;;6.77;2.97;;;19.00;99.90;;;;;;5087625;28;20461;-73
2023/08/16 01:27:52;;;;;;;5.93;3.73;;;18.90;99.90;;;;;;5073291;28;20482;-71
2023/08/16 01:30:39;;;;;;;7.27;3.10;;;19.00;99.90;;;;;;5085196;28;21007;-73
2023/08/16 01:33:25;;;;;;;5.70;3.77;;;19.00;99.90;;;;;;5076373;28;20406;-73
2023/08/16 01:36:10;;;;;;;4.33;3.30;;;19.00;99.90;;;;;;5087264;28;20850;-73
2023/08/16 01:38:57;;;;;;;3.60;3.20;;;18.80;99.90;;;;;;5082341;28;20804;-74
2023/08/16 01:41:44;;;;;;;5.70;3.27;;;18.80;99.90;;;;;;5088978;28;20439;-73
2023/08/16 01:44:33;;;;;;;5.37;3.30;;;18.70;99.90;;;;;;5085005;28;20421;-73
2023/08/16 01:47:19;;;;;;;3.80;3.03;;;18.60;99.90;;;;;;5083454;28;20421;-74
2023/08/16 01:50:06;;;;;;;4.93;3.70;;;18.60;99.90;;;;;;5082576;28;20474;-72
2023/08/16 01:52:52;;;;;;;6.43;2.90;;;18.70;99.90;;;;;;5082376;28;20481;-73
2023/08/16 01:55:38;;;;;;;4.40;3.27;;;18.70;99.90;;;;;;5087616;28;21073;-73
2023/08/16 01:58:23;;;;;;;6.77;4.03;;;18.70;99.90;;;;;;5083216;28;20602;-73
2023/08/16 02:01:10;;;;;;;4.70;3.10;;;18.80;99.90;;;;;;5083747;28;20586;-73
2023/08/16 02:03:55;;;;;;;7.10;3.53;;;18.80;99.90;;;;;;5082094;28;20863;-73
2023/08/16 02:06:41;;;;;;;3.30;2.60;;;18.80;99.90;;;;;;5087473;28;20532;-73
2023/08/16 02:09:26;;;;;;;7.60;3.50;;;18.80;99.90;;;;;;5084772;28;20442;-71
2023/08/16 02:12:12;;;;;;;6.13;3.87;;;18.80;99.90;;;;;;5087898;28;20536;-73
2023/08/16 02:14:57;;;;;;;4.83;3.90;;;18.80;99.90;;;;;;5079525;28;20514;-73
2023/08/16 02:17:44;;;;;;;5.97;3.90;;;18.60;99.90;;;;;;5086454;28;20447;-74
2023/08/16 02:20:30;;;;;;;6.10;4.10;;;18.50;99.90;;;;;;5085217;28;20798;-74
2023/08/16 02:23:15;;;;;;;4.83;3.77;;;18.40;99.90;;;;;;5083996;28;20465;-74
2023/08/16 02:26:01;;;;;;;5.10;3.53;;;18.50;99.90;;;;;;5086650;28;20464;-74
2023/08/16 02:28:46;;;;;;;4.73;3.70;;;18.60;99.90;;;;;;5084008;28;20962;-71
2023/08/16 02:31:32;;;;;;;9.23;3.63;;;18.60;99.90;;;;;;5086497;28;20475;-73
2023/08/16 02:34:18;;;;;;;5.73;3.40;;;18.60;99.90;;;;;;5079130;28;20419;-73
2023/08/16 02:37:04;;;;;;;7.90;4.00;;;18.40;99.90;;;;;;5082837;28;20781;-73
2023/08/16 02:39:50;;;;;;;6.83;3.67;;;18.30;99.90;;;;;;5088508;28;20500;-73
2023/08/16 02:42:36;;;;;;;8.30;3.63;;;18.40;99.90;;;;;;5086494;28;20421;-73
2023/08/16 02:45:21;;;;;;;6.10;3.37;;;18.40;99.90;;;;;;5087034;28;20459;-74
2023/08/16 02:48:07;;;;;;;7.73;3.53;;;18.50;99.90;;;;;;5075809;28;20442;-74
2023/08/16 02:50:53;;;;;;;4.23;3.10;;;18.60;99.90;;;;;;5079459;28;20438;-74
2023/08/16 02:53:39;;;;;;;7.60;3.30;;;18.60;99.90;;;;;;5087481;28;20932;-72
2023/08/16 02:56:24;;;;;;;6.37;3.17;;;18.60;99.90;;;;;;5088231;28;20422;-73
2023/08/16 02:59:14;;;;;;;10.60;3.57;;;18.60;99.90;;;;;;5081231;28;20462;-73
2023/08/16 03:01:59;;;;;;;4.83;3.10;;;18.70;99.90;;;;;;5078070;28;20486;-72
2023/08/16 03:04:45;;;;;;;9.10;3.70;;;18.80;99.90;;;;;;5085202;28;20450;-73
2023/08/16 03:07:32;;;;;;;5.20;2.97;;;18.80;99.90;;;;;;5092362;28;20449;-72
2023/08/16 03:10:17;;;;;;;9.40;3.30;;;18.70;99.90;;;;;;5091427;28;20432;-74
2023/08/16 03:13:03;;;;;;;8.20;3.67;;;18.60;99.90;;;;;;5086818;28;20446;-73
2023/08/16 03:15:49;;;;;;;5.00;4.00;;;18.40;99.90;;;;;;5088713;28;20414;-73
2023/08/16 03:18:34;;;;;;;4.07;2.70;;;18.40;99.90;;;;;;5087879;28;20472;-73
2023/08/16 03:21:23;;;;;;;7.60;3.70;;;18.50;99.90;;;;;;5091510;28;20964;-72
2023/08/16 03:24:09;;;;;;;8.20;3.80;;;18.50;99.90;;;;;;5086760;28;20566;-73
2023/08/16 03:26:55;;;;;;;4.33;3.60;;;18.30;99.90;;;;;;5087056;28;20437;-73
2023/08/16 03:29:40;;;;;;;6.70;3.53;;;18.30;99.90;;;;;;5089762;28;20457;-73
2023/08/16 03:32:26;;;;;;;8.47;3.37;;;18.30;99.90;;;;;;5088860;28;20421;-73
2023/08/16 03:35:11;;;;;;;5.07;3.20;;;18.40;99.90;;;;;;5090903;28;20443;-73
2023/08/16 03:37:57;;;;;;;5.87;3.40;;;18.40;99.90;;;;;;5082965;28;20438;-74
2023/08/16 03:40:44;;;;;;;6.40;3.70;;;18.40;99.90;;;;;;5080376;28;20454;-74
2023/08/16 03:43:31;;;;;;;6.03;3.73;;;18.50;99.90;;;;;;5081028;28;20460;-73
2023/08/16 03:46:16;;;;;;;5.70;3.27;;;18.60;99.90;;;;;;5087104;28;20812;-73
2023/08/16 03:49:02;;;;;;;6.43;3.40;;;18.70;99.90;;;;;;5084478;28;20482;-73
2023/08/16 03:51:47;;;;;;;4.53;3.00;;;18.70;99.90;;;;;;5087369;28;20992;-73
2023/08/16 03:54:33;;;;;;;10.50;3.10;;;18.70;99.90;;;;;;5086992;28;20955;-74
2023/08/16 03:57:20;;;;;;;11.23;5.13;;;18.60;99.90;;;;;;5082950;28;20446;-72
2023/08/16 04:00:08;;;;;;;8.00;3.53;;;18.60;99.90;;;;;;5085793;28;20522;-73
2023/08/16 04:02:53;;;;;;;7.97;4.70;;;18.60;99.90;;;;;;5082748;28;20942;-72
2023/08/16 04:05:39;;;;;;;5.80;4.03;;;18.60;99.90;;;;;;5087511;28;20455;-73
2023/08/16 04:08:24;;;;;;;5.17;3.80;;;18.40;99.90;;;;;;5086232;28;20441;-73
2023/08/16 04:11:10;;;;;;;14.53;4.33;;;18.50;99.90;;;;;;5089469;28;20445;-73
2023/08/16 04:13:57;;;;;;;5.57;3.83;;;18.40;99.90;;;;;;5078373;28;20766;-74
2023/08/16 04:16:42;;;;;;;10.13;3.80;;;18.40;99.90;;;;;;5083000;28;20929;-74
2023/08/16 04:19:31;;;;;;;6.27;3.67;;;18.50;99.90;;;;;;5086056;28;20537;-73
2023/08/16 04:22:16;;;;;;;8.73;3.60;;;18.50;99.90;;;;;;5085938;28;20514;-72
2023/08/16 04:25:03;;;;;;;7.40;3.17;;;18.50;99.90;;;;;;5082102;28;20437;-73
2023/08/16 04:27:48;;;;;;;5.70;4.03;;;18.60;99.90;;;;;;5083826;28;20492;-73
2023/08/16 04:30:35;;;;;;;8.00;3.67;;;18.70;99.90;;;;;;5081147;28;21029;-72
2023/08/16 04:33:21;;;;;;;9.03;4.20;;;18.70;99.90;;;;;;5080443;28;21163;-73
2023/08/16 04:36:06;;;;;;;5.53;4.37;;;18.60;99.90;;;;;;5081450;28;20437;-72
2023/08/16 04:38:52;;;;;;;11.10;3.50;;;18.70;99.90;;;;;;5078328;28;20473;-73
2023/08/16 04:41:37;;;;;;;15.30;4.20;;;18.70;99.90;;;;;;5086926;28;20931;-73
2023/08/16 04:44:23;;;;;;;16.10;3.63;;;18.70;99.90;;;;;;5084075;28;20430;-72
2023/08/16 04:47:10;;;;;;;5.07;4.20;;;18.60;99.90;;;;;;5080937;28;20441;-74
2023/08/16 04:49:54;;;;;;;6.80;3.87;;;18.70;99.90;;;;;;5078350;28;20443;-73
2023/08/16 04:52:40;;;;;;;6.87;4.00;;;18.60;99.90;;;;;;5084194;28;20418;-74
2023/08/16 04:55:25;;;;;;;6.27;4.43;;;18.60;99.90;;;;;;5082642;28;20446;-73
2023/08/16 04:58:11;;;;;;;4.60;4.00;;;18.60;99.90;;;;;;5082018;28;20459;-73
2023/08/16 05:00:57;;;;;;;5.70;3.97;;;18.60;99.90;;;;;;5077314;28;20463;-74
2023/08/16 05:03:50;;;;;;;5.50;3.53;;;18.70;99.90;;;;;;5082760;28;20636;-74
2023/08/16 05:06:36;;;;;;;6.40;4.00;;;18.80;99.90;;;;;;5079981;28;20936;-74
2023/08/16 05:09:22;;;;;;;5.33;3.73;;;18.90;99.90;;;;;;5081901;28;20476;-72
2023/08/16 05:12:07;;;;;;;8.50;4.30;;;19.00;99.90;;;;;;5083333;28;20571;-74
2023/08/16 05:14:53;;;;;;;7.43;4.10;;;19.10;99.90;;;;;;5083382;28;20963;-74
2023/08/16 05:17:38;;;;;;;11.60;3.90;;;19.10;99.90;;;;;;5081373;28;20452;-72
2023/08/16 05:20:25;;;;;;;7.93;4.70;;;19.20;99.90;;;;;;5075976;28;20933;-72
2023/08/16 05:23:11;;;;;;;6.87;3.93;;;19.30;99.90;;;;;;5084721;28;20447;-72
2023/08/16 05:25:56;;;;;;;10.50;4.50;;;19.30;99.90;;;;;;5081641;28;20472;-72
2023/08/16 05:28:42;;;;;;;4.90;4.00;;;19.30;99.90;;;;;;5080275;28;20997;-72
2023/08/16 05:31:27;;;;;;;5.30;4.23;;;19.30;99.90;;;;;;5084221;28;20476;-72
2023/08/16 05:34:16;;;;;;;7.33;3.90;;;19.30;99.90;;;;;;5080232;28;20436;-73
2023/08/16 05:37:05;;;;;;;6.00;3.80;;;19.30;99.90;;;;;;5083931;28;20493;-72
2023/08/16 05:39:50;;;;;;;5.53;4.20;;;19.50;99.90;;;;;;5075748;28;20476;-73
2023/08/16 05:42:36;;;;;;;7.73;3.93;;;19.60;99.90;;;;;;5085010;28;20439;-72
2023/08/16 05:45:26;;;;;;;5.93;4.87;;;19.60;99.90;;;;;;5074901;28;20456;-72
2023/08/16 05:48:11;;;;;;;7.37;4.43;;;19.60;99.90;;;;;;5078176;28;20472;-72
2023/08/16 05:50:56;;;;;;;13.97;5.27;;;19.70;99.90;;;;;;5081854;28;20521;-72
2023/08/16 05:53:43;;;;;;;17.13;4.43;;;19.80;99.90;;;;;;5083459;28;20435;-71
2023/08/16 05:56:29;;;;;;;7.23;4.53;;;19.80;99.90;;;;;;5081881;28;20455;-72
2023/08/16 05:59:14;;;;;;;12.37;4.50;;;19.80;99.90;;;;;;5078241;28;20471;-73
2023/08/16 06:02:00;;;;;;;8.27;4.77;;;19.90;99.90;;;;;;5081375;28;20785;-72
2023/08/16 06:04:45;;;;;;;5.63;4.40;;;19.90;99.90;;;;;;5078305;28;20449;-73
2023/08/16 06:07:30;;;;;;;8.10;4.47;;;19.90;99.90;;;;;;5079005;28;20449;-73
2023/08/16 06:10:17;;;;;;;6.00;5.03;;;20.00;99.90;;;;;;5083685;28;20574;-72
2023/08/16 06:13:03;;;;;;;10.47;5.80;;;19.90;99.90;;;;;;5079200;28;20416;-72
2023/08/16 06:15:48;;;;;;;9.23;6.00;;;19.90;99.90;;;;;;5082961;28;20421;-72
2023/08/16 06:18:34;;;;;;;10.27;5.63;;;19.90;99.90;;;;;;5079893;28;20564;-72
2023/08/16 06:21:19;;;;;;;7.90;6.50;;;19.90;99.90;;;;;;5077431;28;20539;-71
2023/08/16 06:24:05;;;;;;;7.73;5.83;;;20.00;99.90;;;;;;5073143;28;20914;-71
2023/08/16 06:26:52;;;;;;;10.93;6.90;;;20.10;99.90;;;;;;5071140;28;20428;-72
2023/08/16 06:29:38;;;;;;;8.73;5.70;;;20.00;99.90;;;;;;5081331;28;20476;-72
2023/08/16 06:32:23;;;;;;;18.83;6.30;;;20.00;99.90;;;;;;5077900;28;20554;-73
2023/08/16 06:35:09;;;;;;;10.20;5.57;;;19.90;99.90;;;;;;5075130;28;20435;-72
2023/08/16 06:37:54;;;;;;;8.10;5.53;;;20.00;99.90;;;;;;5075605;28;20479;-72
2023/08/16 06:40:40;;;;;;;7.43;4.80;;;20.00;99.90;;;;;;5086106;28;20492;-72
2023/08/16 06:43:26;;;;;;;12.17;5.57;;;20.00;99.90;;;;;;5087782;28;20416;-72
2023/08/16 06:46:12;;;;;;;6.87;6.00;;;20.10;99.90;;;;;;5082316;28;20440;-72
2023/08/16 06:48:58;;;;;;;8.90;6.07;;;20.00;99.90;;;;;;5085729;28;20549;-72
2023/08/16 06:51:44;;;;;;;8.83;6.70;;;20.00;99.90;;;;;;5090763;28;20481;-73
2023/08/16 06:54:29;;;;;;;11.13;6.23;;;20.10;99.90;;;;;;5086025;28;20469;-73
2023/08/16 06:57:15;;;;;;;8.97;6.47;;;20.20;99.90;;;;;;5089608;28;20471;-72
2023/08/16 07:00:03;;;;;;;9.80;6.97;;;20.30;99.90;;;;;;5085336;28;20635;-71
2023/08/16 07:02:49;;;;;;;10.83;6.60;;;20.60;99.90;;;;;;5086961;28;20420;-72
2023/08/16 07:05:34;;;;;;;12.87;6.80;;;20.80;99.90;;;;;;5088934;28;20466;-72
2023/08/16 07:08:20;;;;;;;9.53;6.40;;;21.10;99.90;;;;;;5083336;28;21251;-72
2023/08/16 07:11:05;;;;;;;7.77;5.77;;;21.20;99.90;;;;;;5081645;28;20472;-69
2023/08/16 07:13:51;;;;;;;7.83;6.00;;;21.40;99.90;;;;;;5088595;28;20813;-69
2023/08/16 07:16:39;;;;;;;12.73;6.80;;;21.50;99.90;;;;;;5087730;28;20469;-70
2023/08/16 07:19:25;;;;;;;7.20;5.97;;;21.60;99.90;;;;;;5083704;28;20476;-69
2023/08/16 07:22:10;;;;;;;9.03;6.67;;;21.60;99.90;;;;;;5088824;28;20570;-70
2023/08/16 07:24:56;;;;;;;6.77;5.40;;;21.50;99.90;;;;;;5080611;28;21060;-70
2023/08/16 07:27:41;;;;;;;11.60;5.87;;;21.40;99.90;;;;;;5085234;28;20584;-69
2023/08/16 07:30:27;;;;;;;6.37;5.70;;;21.30;99.90;;;;;;5084581;28;20450;-69
2023/08/16 07:33:14;;;;;;;8.67;5.20;;;21.40;99.90;;;;;;5083084;28;20433;-70
2023/08/16 07:36:03;;;;;;;8.63;5.47;;;21.60;99.90;;;;;;5082105;28;20447;-70
2023/08/16 07:38:48;;;;;;;8.73;5.20;;;21.80;99.90;;;;;;5087591;28;20470;-69
2023/08/16 07:41:34;;;;;;;6.27;4.87;;;21.90;99.90;;;;;;5084256;28;20434;-69
2023/08/16 07:44:19;;;;;;;5.83;4.10;;;22.20;99.90;;;;;;5084526;28;20416;-70
2023/08/16 07:47:06;;;;;;;6.80;4.43;;;22.30;99.90;;;;;;5077403;28;20441;-69
2023/08/16 07:49:54;;;;;;;4.63;4.10;;;22.50;99.90;;;;;;5084880;28;20974;-69
2023/08/16 07:52:39;;;;;;;6.00;4.10;;;22.60;99.90;;;;;;5083299;28;20515;-69
2023/08/16 07:55:32;;;;;;;5.97;3.70;;;22.80;99.90;;;;;;5082252;28;20438;-69
2023/08/16 07:58:17;;;;;;;5.53;3.43;;;23.00;99.90;;;;;;5087841;28;20544;-70
2023/08/16 08:01:03;;;;;;;5.77;3.60;;;23.10;99.90;;;;;;5082714;28;20437;-69
2023/08/16 08:03:49;;;;;;;6.57;3.40;;;23.10;99.90;;;;;;5085846;28;20518;-69
2023/08/16 08:06:36;;;;;;;6.30;4.20;;;23.10;99.90;;;;;;5085345;28;20445;-69
2023/08/16 08:09:21;;;;;;;6.23;3.70;;;23.10;99.90;;;;;;5080229;28;20444;-70
2023/08/16 08:12:07;;;;;;;9.33;4.27;;;23.20;99.90;;;;;;5086322;28;20470;-69
2023/08/16 08:14:52;;;;;;;5.53;3.63;;;23.20;99.90;;;;;;5082693;28;20551;-69
2023/08/16 08:17:38;;;;;;;5.60;3.40;;;23.20;99.90;;;;;;5083646;28;20421;-69
2023/08/16 08:20:23;;;;;;;7.83;3.80;;;23.10;99.90;;;;;;5084771;28;20449;-70
2023/08/16 08:23:10;;;;;;;3.90;3.20;;;23.10;99.90;;;;;;5078089;28;20473;-70
2023/08/16 08:25:56;;;;;;;4.40;3.23;;;23.10;99.90;;;;;;5083730;28;20490;-70
2023/08/16 08:28:41;;;;;;;8.23;3.50;;;23.10;99.90;;;;;;5086722;28;20473;-69
2023/08/16 08:31:27;;;;;;;6.60;3.33;;;23.10;99.90;;;;;;5083182;28;21352;-70
2023/08/16 08:34:14;;;;;;;4.50;3.17;;;23.20;99.90;;;;;;5083623;28;20438;-70
2023/08/16 08:37:00;;;;;;;6.00;4.20;;;23.30;99.90;;;;;;5081237;28;21057;-70
2023/08/16 08:39:47;;;;;;;4.73;3.37;;;23.50;99.90;;;;;;5085477;28;20583;-69
2023/08/16 08:42:33;;;;;;;8.73;3.67;;;23.70;99.90;;;;;;5082219;28;20490;-70
2023/08/16 08:45:18;;;;;;;6.17;3.63;;;23.80;99.90;;;;;;5085415;28;20443;-70
2023/08/16 08:48:06;;;;;;;9.53;3.43;;;23.90;99.90;;;;;;5076658;28;20630;-70
2023/08/16 08:50:52;;;;;;;4.30;3.57;;;24.00;99.90;;;;;;5083745;28;20442;-70
2023/08/16 08:53:37;;;;;;;6.30;3.43;;;24.00;99.90;;;;;;5084411;28;20439;-70
2023/08/16 08:56:27;;;;;;;4.83;3.33;;;24.10;99.90;;;;;;5083246;28;20602;-69
2023/08/16 08:59:13;;;;;;;3.87;3.30;;;24.10;99.90;;;;;;5081225;28;20457;-70
2023/08/16 09:01:59;;;;;;;5.43;3.00;;;24.00;99.90;;;;;;5078303;28;20443;-70
2023/08/16 09:04:47;;;;;;;3.90;2.67;;;24.00;99.90;;;;;;5081459;28;20424;-70
2023/08/16 09:07:35;;;;;;;10.33;3.63;;;24.00;99.90;;;;;;5086248;28;20417;-70
2023/08/16 09:10:20;;;;;;;4.20;3.10;;;24.10;99.90;;;;;;5083334;28;20962;-69
2023/08/16 09:13:10;;;;;;;4.97;3.20;;;24.30;99.90;;;;;;5085650;28;20478;-70
2023/08/16 09:15:55;;;;;;;5.60;3.60;;;24.40;99.90;;;;;;5081734;28;20493;-70
2023/08/16 09:18:47;;;;;;;4.87;3.53;;;24.40;99.90;;;;;;5081734;28;20493;-69
2023/08/16 09:21:33;;;;;;;6.53;3.67;;;24.40;99.90;;;;;;5084501;28;20454;-69
2023/08/16 09:24:23;;;;;;;5.40;3.63;;;24.50;99.90;;;;;;5079992;28;20513;-70
2023/08/16 09:27:10;;;;;;;3.87;3.10;;;24.50;99.90;;;;;;5076364;28;20471;-69
2023/08/16 09:29:56;;;;;;;9.07;3.50;;;24.60;99.90;;;;;;5086074;28;20566;-70
2023/08/16 09:32:42;;;;;;;3.50;2.80;;;24.70;99.90;;;;;;5081008;28;20475;-70
2023/08/16 09:35:29;;;;;;;5.63;3.63;;;24.70;99.90;;;;;;5084240;28;20438;-69
2023/08/16 09:38:15;;;;;;;4.07;3.20;;;24.60;99.90;;;;;;5085441;28;20849;-70
2023/08/16 09:41:00;;;;;;;5.40;4.17;;;24.60;99.90;;;;;;5080792;28;20968;-69
2023/08/16 09:43:46;;;;;;;7.10;3.83;;;24.70;99.90;;;;;;5081580;28;20438;-70
2023/08/16 09:46:33;;;;;;;5.37;3.40;;;24.70;99.90;;;;;;5076116;28;20468;-70
2023/08/16 09:49:23;;;;;;;4.80;2.97;;;24.70;99.90;;;;;;5074119;28;20458;-70
2023/08/16 09:52:10;;;;;;;4.90;3.63;;;24.70;99.90;;;;;;5081665;28;20859;-69
2023/08/16 09:54:57;;;;;;;4.93;3.63;;;24.70;99.90;;;;;;5083481;28;20530;-69
2023/08/16 09:57:42;;;;;;;3.93;3.27;;;24.70;99.90;;;;;;5080199;28;20521;-71
2023/08/16 10:00:29;;;;;;;4.40;3.97;;;24.70;99.90;;;;;;5080317;28;20517;-70
2023/08/16 10:03:16;;;;;;;5.50;4.53;;;24.80;99.90;;;;;;5077706;28;20452;-68
2023/08/16 10:06:01;;;;;;;8.23;4.27;;;24.80;99.90;;;;;;5081531;28;20509;-69
2023/08/16 10:08:47;;;;;;;5.90;3.30;;;24.80;99.90;;;;;;5082901;28;20499;-69
2023/08/16 10:11:34;;;;;;;8.87;3.43;;;24.80;99.90;;;;;;5080306;28;20462;-68
2023/08/16 10:14:19;;;;;;;4.50;3.40;;;24.90;99.90;;;;;;5084662;28;20451;-68
2023/08/16 10:17:06;;;;;;;4.37;3.37;;;25.00;99.90;;;;;;5087115;28;20452;-69
2023/08/16 10:19:59;;;;;;;5.87;3.53;;;24.90;99.90;;;;;;5087622;28;20469;-68
2023/08/16 10:22:50;;;;;;;5.30;3.40;;;24.90;99.90;;;;;;5084109;28;20443;-70
2023/08/16 10:25:38;;;;;;;4.80;3.57;;;24.90;99.90;;;;;;5087958;28;20481;-69
2023/08/16 10:28:26;;;;;;;4.20;2.83;;;24.90;99.90;;;;;;5083787;28;20461;-69
2023/08/16 10:31:15;;;;;;;3.30;2.60;;;25.00;99.90;;;;;;5077726;28;20964;-69
2023/08/16 10:34:02;;;;;;;4.40;3.33;;;25.10;99.90;;;;;;5085356;28;20442;-70
2023/08/16 10:36:49;;;;;;;5.23;4.07;;;25.30;99.90;;;;;;5092597;28;20974;-69
2023/08/16 10:39:34;;;;;;;5.30;3.37;;;25.50;99.90;;;;;;5091301;28;20465;-69
2023/08/16 10:42:26;;;;;;;5.07;3.60;;;25.70;99.90;;;;;;5088428;28;20442;-70
2023/08/16 10:45:22;;;;;;;4.27;2.97;;;25.70;99.90;;;;;;5091888;28;20465;-69
2023/08/16 10:48:11;;;;;;;4.10;3.50;;;25.60;99.90;;;;;;5088835;28;20467;-70
2023/08/16 10:50:57;;;;;;;3.73;3.33;;;25.60;99.90;;;;;;5091173;28;20796;-69
2023/08/16 10:53:44;;;;;;;4.30;3.10;;;25.60;99.90;;;;;;5083539;28;20502;-70
2023/08/16 10:56:37;;;;;;;8.17;3.37;;;25.60;99.90;;;;;;5089402;28;20442;-69
2023/08/16 10:59:22;;;;;;;4.90;3.67;;;25.70;99.90;;;;;;5088368;28;20942;-70
2023/08/16 11:02:14;;;;;;;4.50;3.57;;;25.70;99.90;;;;;;5085373;28;20470;-69
2023/08/16 11:05:00;;;;;;;4.87;3.50;;;25.90;99.90;;;;;;5091659;28;20447;-70
2023/08/16 11:07:46;;;;;;;8.80;3.50;;;25.90;99.90;;;;;;5087040;28;20471;-70
2023/08/16 11:10:38;;;;;;;4.50;3.73;;;26.10;99.90;;;;;;5091132;28;20448;-70
2023/08/16 11:13:23;;;;;;;5.53;3.50;;;26.20;99.90;;;;;;5081944;28;20481;-69
2023/08/16 11:16:09;;;;;;;8.47;4.10;;;26.30;99.90;;;;;;5088507;28;20452;-69
2023/08/16 11:18:59;;;;;;;4.30;3.03;;;26.20;99.90;;;;;;5084940;28;20641;-70
2023/08/16 11:21:47;;;;;;;7.33;3.57;;;26.30;99.90;;;;;;5090458;28;20953;-70
2023/08/16 11:24:34;;;;;;;5.10;3.83;;;26.30;99.90;;;;;;5090756;28;20804;-70
2023/08/16 11:27:24;;;;;;;5.07;3.90;;;26.60;99.90;;;;;;5091768;28;20495;-70
2023/08/16 11:30:10;;;;;;;4.30;3.47;;;26.80;99.90;;;;;;5077585;28;20452;-70
2023/08/16 11:32:55;;;;;;;5.00;3.30;;;27.00;99.90;;;;;;5084936;28;20479;-70
2023/08/16 11:35:41;;;;;;;4.17;3.27;;;27.10;99.90;;;;;;5089206;28;20441;-70
2023/08/16 11:38:28;;;;;;;4.43;3.27;;;27.20;99.90;;;;;;5075191;28;20468;-71
2023/08/16 11:41:18;;;;;;;9.37;3.87;;;27.40;99.90;;;;;;5080214;28;20465;-70
2023/08/16 11:44:05;;;;;;;4.80;3.47;;;27.50;99.90;;;;;;5083173;28;20578;-70
2023/08/16 11:46:51;;;;;;;5.23;3.50;;;27.50;99.90;;;;;;5086231;28;20573;-70
2023/08/16 11:49:37;;;;;;;5.50;3.87;;;27.50;99.90;;;;;;5080381;28;20493;-70
2023/08/16 11:52:23;;;;;;;6.30;4.33;;;27.40;99.90;;;;;;5080081;28;20472;-70
2023/08/16 11:55:09;;;;;;;4.57;3.80;;;27.50;99.90;;;;;;5077596;28;20444;-69
2023/08/16 11:57:54;;;;;;;5.97;3.53;;;27.50;99.90;;;;;;5081321;28;20466;-69
2023/08/16 12:00:42;;;;;;;6.00;3.50;;;27.70;99.90;;;;;;5082245;28;20444;-69
2023/08/16 12:03:32;;;;;;;5.87;4.00;;;27.90;99.90;;;;;;5079395;28;20549;-69
2023/08/16 12:06:18;;;;;;;4.23;3.60;;;28.10;99.90;;;;;;5081024;28;20524;-69
2023/08/16 12:09:03;;;;;;;4.60;3.97;;;28.10;99.90;;;;;;5081458;28;22525;-68
2023/08/16 12:11:51;;;;;;;6.23;4.33;;;28.00;99.90;;;;;;5081751;28;20844;-69
2023/08/16 12:14:36;;;;;;;5.27;3.67;;;28.00;99.90;;;;;;5080144;28;20457;-69
2023/08/16 12:17:23;;;;;;;7.90;3.60;;;28.00;99.90;;;;;;5079887;28;20445;-71
2023/08/16 12:20:09;;;;;;;7.33;3.83;;;28.00;99.90;;;;;;5076543;28;20523;-71
2023/08/16 12:22:55;;;;;;;5.80;3.90;;;28.00;99.90;;;;;;5079299;28;20441;-71
2023/08/16 12:25:41;;;;;;;5.17;3.97;;;27.90;99.90;;;;;;5081864;28;20473;-71
2023/08/16 12:28:26;;;;;;;5.77;3.83;;;27.90;99.90;;;;;;5075497;28;20472;-71
2023/08/16 12:31:12;;;;;;;11.57;6.00;;;28.10;99.90;;;;;;5081047;28;20445;-71
2023/08/16 12:33:59;;;;;;;7.07;4.10;;;28.30;99.90;;;;;;5079244;28;20570;-71
2023/08/16 12:36:44;;;;;;;4.40;3.97;;;28.50;99.90;;;;;;5082967;28;20965;-71
2023/08/16 12:39:30;;;;;;;6.40;3.90;;;28.70;99.90;;;;;;5081043;28;20460;-71
2023/08/16 12:42:15;;;;;;;5.70;4.00;;;28.90;99.90;;;;;;5082130;28;20471;-71
2023/08/16 12:45:01;;;;;;;4.90;3.97;;;29.10;99.90;;;;;;5081107;28;21089;-71
2023/08/16 12:47:46;;;;;;;5.23;3.73;;;29.20;99.90;;;;;;5081937;28;20441;-71
2023/08/16 12:50:33;;;;;;;5.57;3.77;;;29.30;99.90;;;;;;5081633;28;20811;-71
2023/08/16 12:53:19;;;;;;;6.37;4.10;;;29.40;99.90;;;;;;5083343;28;20476;-71
2023/08/16 12:56:05;;;;;;;8.03;4.10;;;29.40;99.90;;;;;;5082545;28;20497;-71
2023/08/16 12:58:51;;;;;;;5.70;3.83;;;29.40;99.90;;;;;;5074325;28;21143;-71
2023/08/16 13:01:36;;;;;;;8.60;4.00;;;29.50;99.90;;;;;;5078040;28;20874;-71
2023/08/16 13:04:22;;;;;;;10.60;3.90;;;29.50;99.90;;;;;;5076375;28;20560;-71
2023/08/16 13:07:09;;;;;;;11.40;3.97;;;29.60;98.30;;;;;;5075603;28;20449;-71
2023/08/16 13:09:54;;;;;;;4.80;3.90;;;29.60;99.90;;;;;;5078792;28;20460;-71
2023/08/16 13:12:40;;;;;;;7.77;4.20;;;29.70;99.90;;;;;;5079096;28;20491;-71
2023/08/16 13:15:25;;;;;;;4.87;3.97;;;29.80;98.40;;;;;;5078470;28;21128;-71
2023/08/16 13:18:10;;;;;;;6.40;4.00;;;29.80;98.40;;;;;;5077160;28;20827;-71
2023/08/16 13:20:59;;;;;;;7.80;4.33;;;29.90;96.80;;;;;;5076648;28;20451;-71
2023/08/16 13:23:48;;;;;;;6.10;4.20;;;29.90;96.00;;;;;;5081328;28;20441;-71
2023/08/16 13:26:33;;;;;;;6.00;3.87;;;30.10;96.80;;;;;;5081275;28;20449;-71
2023/08/16 13:29:19;;;;;;;6.40;4.10;;;30.20;98.50;;;;;;5076876;28;20473;-71
2023/08/16 13:32:04;;;;;;;6.53;3.77;;;30.50;95.10;;;;;;5078128;28;20443;-71
2023/08/16 13:34:50;;;;;;;7.40;3.50;;;30.70;87.40;;;;;;5073499;28;20564;-71
2023/08/16 13:37:35;;;;;;;6.90;3.60;;;30.80;82.30;;;;;;5075596;28;20864;-71
2023/08/16 13:40:22;;;;;;;6.13;3.83;;;30.90;76.90;;;;;;5075553;28;20815;-71
2023/08/16 13:43:08;;;;;;;6.87;4.07;;;30.70;76.30;;;;;;5077799;28;20803;-71
2023/08/16 13:45:53;;;;;;;7.60;4.50;;;30.70;71.00;;;;;;5078149;28;20910;-71
2023/08/16 13:48:39;;;;;;;5.80;4.00;;;30.60;76.80;;;;;;5075916;28;20481;-71
2023/08/16 13:51:24;;;;;;;5.70;3.87;;;30.60;75.10;;;;;;5074011;28;20465;-71
2023/08/16 13:54:10;;;;;;;5.70;4.37;;;30.50;79.50;;;;;;5078355;28;20474;-71
2023/08/16 13:56:57;;;;;;;12.33;3.67;;;30.40;82.00;;;;;;5073414;28;20478;-71
2023/08/16 13:59:44;;;;;;;6.07;3.40;;;30.30;87.00;;;;;;5078691;28;20918;-71
2023/08/16 14:02:29;;;;;;;6.43;4.07;;;30.40;76.30;;;;;;5076213;28;20434;-71
2023/08/16 14:05:18;;;;;;;6.50;3.57;;;30.50;77.60;;;;;;5077987;28;20593;-71
2023/08/16 14:08:04;;;;;;;5.70;4.20;;;30.60;70.10;;;;;;5075532;28;20523;-72
2023/08/16 14:10:52;;;;;;;5.00;3.67;;;30.80;64.30;;;;;;5075353;28;20473;-72
2023/08/16 14:13:38;;;;;;;6.00;3.33;;;30.90;69.60;;;;;;5077878;28;20482;-72
2023/08/16 14:16:24;;;;;;;5.40;3.40;;;30.90;64.40;;;;;;5080029;28;20505;-72
2023/08/16 14:19:09;;;;;;;6.83;3.50;;;31.00;63.60;;;;;;5073321;28;20600;-72
2023/08/16 14:21:55;;;;;;;6.20;3.70;;;31.00;62.00;;;;;;5075858;28;20449;-72
2023/08/16 14:24:40;;;;;;;5.33;3.40;;;31.00;67.60;;;;;;5078109;28;20855;-72